sensor_id;sensor_type;location;lat;lon;timestamp;P1;durP1;ratioP1;P2;durP2;ratioP2
36137;SDS011;22194;50.046;21.954;2022-09-29T00:01:36;3.90;;;1.10;;
36137;SDS011;22194;50.046;21.954;2022-09-29T00:04:07;2.00;;;1.10;;
36137;SDS011;22194;50.046;21.954;2022-09-29T00:06:36;2.70;;;1.10;;
36137;SDS011;22194;50.046;21.954;2022-09-29T00:09:05;3.90;;;1.10;;
36137;SDS011;22194;50.046;21.954;2022-09-29T00:11:35;5.30;;;1.00;;
36137;SDS011;22194;50.046;21.954;2022-09-29T00:14:06;2.90;;;0.90;;
36137;SDS011;22194;50.046;21.954;2022-09-29T00:16:34;1.90;;;1.20;;
36137;SDS011;22194;50.046;21.954;2022-09-29T00:19:04;2.90;;;1.20;;
36137;SDS011;22194;50.046;21.954;2022-09-29T00:21:35;1.80;;;1.20;;
36137;SDS011;22194;50.046;21.954;2022-09-29T00:24:03;2.70;;;1.10;;
36137;SDS011;22194;50.046;21.954;2022-09-29T00:26:31;3.60;;;1.30;;
36137;SDS011;22194;50.046;21.954;2022-09-29T00:29:00;4.90;;;1.20;;
36137;SDS011;22194;50.046;21.954;2022-09-29T00:31:30;2.30;;;1.10;;
36137;SDS011;22194;50.046;21.954;2022-09-29T00:34:01;1.50;;;0.70;;
36137;SDS011;22194;50.046;21.954;2022-09-29T00:36:31;4.50;;;1.20;;
36137;SDS011;22194;50.046;21.954;2022-09-29T00:39:01;4.40;;;1.00;;
36137;SDS011;22194;50.046;21.954;2022-09-29T00:41:33;1.80;;;1.20;;
36137;SDS011;22194;50.046;21.954;2022-09-29T00:46:58;4.10;;;1.40;;
36137;SDS011;22194;50.046;21.954;2022-09-29T00:52:10;5.00;;;1.40;;
36137;SDS011;22194;50.046;21.954;2022-09-29T00:57:39;2.30;;;1.40;;
36137;SDS011;22194;50.046;21.954;2022-09-29T01:00:15;5.40;;;1.60;;
36137;SDS011;22194;50.046;21.954;2022-09-29T01:02:48;3.50;;;1.50;;
36137;SDS011;22194;50.046;21.954;2022-09-29T01:05:29;2.60;;;1.60;;
36137;SDS011;22194;50.046;21.954;2022-09-29T01:08:03;4.80;;;1.40;;
36137;SDS011;22194;50.046;21.954;2022-09-29T01:10:59;3.40;;;1.70;;
36137;SDS011;22194;50.046;21.954;2022-09-29T01:13:28;2.90;;;1.30;;
36137;SDS011;22194;50.046;21.954;2022-09-29T01:16:01;2.30;;;1.60;;
36137;SDS011;22194;50.046;21.954;2022-09-29T01:18:37;4.00;;;1.50;;
36137;SDS011;22194;50.046;21.954;2022-09-29T01:29:52;3.60;;;1.90;;
36137;SDS011;22194;50.046;21.954;2022-09-29T01:32:42;1.90;;;1.50;;
36137;SDS011;22194;50.046;21.954;2022-09-29T01:35:36;2.00;;;1.50;;
36137;SDS011;22194;50.046;21.954;2022-09-29T01:46:52;5.00;;;1.40;;
36137;SDS011;22194;50.046;21.954;2022-09-29T01:49:38;2.10;;;1.30;;
36137;SDS011;22194;50.046;21.954;2022-09-29T01:52:13;2.10;;;1.60;;
36137;SDS011;22194;50.046;21.954;2022-09-29T01:54:54;1.90;;;1.50;;
36137;SDS011;22194;50.046;21.954;2022-09-29T01:57:31;2.20;;;1.50;;
36137;SDS011;22194;50.046;21.954;2022-09-29T02:00:13;3.40;;;1.70;;
36137;SDS011;22194;50.046;21.954;2022-09-29T02:02:54;5.80;;;1.90;;
36137;SDS011;22194;50.046;21.954;2022-09-29T02:11:20;2.70;;;1.70;;
36137;SDS011;22194;50.046;21.954;2022-09-29T02:14:02;5.10;;;2.20;;
36137;SDS011;22194;50.046;21.954;2022-09-29T02:16:50;2.40;;;1.60;;
36137;SDS011;22194;50.046;21.954;2022-09-29T02:19:35;5.70;;;1.70;;
36137;SDS011;22194;50.046;21.954;2022-09-29T02:22:07;5.70;;;1.80;;
36137;SDS011;22194;50.046;21.954;2022-09-29T02:24:37;4.40;;;1.70;;
36137;SDS011;22194;50.046;21.954;2022-09-29T02:27:08;6.50;;;1.80;;
36137;SDS011;22194;50.046;21.954;2022-09-29T02:29:39;5.70;;;2.10;;
36137;SDS011;22194;50.046;21.954;2022-09-29T02:32:11;2.30;;;1.80;;
36137;SDS011;22194;50.046;21.954;2022-09-29T02:34:42;3.60;;;2.30;;
36137;SDS011;22194;50.046;21.954;2022-09-29T02:40:15;4.30;;;1.70;;
36137;SDS011;22194;50.046;21.954;2022-09-29T02:54:54;3.70;;;2.00;;
36137;SDS011;22194;50.046;21.954;2022-09-29T02:57:49;2.70;;;1.60;;
36137;SDS011;22194;50.046;21.954;2022-09-29T03:00:42;8.30;;;2.60;;
36137;SDS011;22194;50.046;21.954;2022-09-29T03:03:14;3.20;;;2.00;;
36137;SDS011;22194;50.046;21.954;2022-09-29T03:05:44;4.20;;;2.10;;
36137;SDS011;22194;50.046;21.954;2022-09-29T03:08:15;3.80;;;2.20;;
36137;SDS011;22194;50.046;21.954;2022-09-29T03:10:43;7.30;;;2.30;;
36137;SDS011;22194;50.046;21.954;2022-09-29T03:13:11;5.20;;;2.00;;
36137;SDS011;22194;50.046;21.954;2022-09-29T03:15:39;6.60;;;2.30;;
36137;SDS011;22194;50.046;21.954;2022-09-29T03:18:07;3.90;;;2.30;;
36137;SDS011;22194;50.046;21.954;2022-09-29T03:20:38;7.00;;;2.50;;
36137;SDS011;22194;50.046;21.954;2022-09-29T03:23:05;6.30;;;2.60;;
36137;SDS011;22194;50.046;21.954;2022-09-29T03:25:33;7.10;;;2.80;;
36137;SDS011;22194;50.046;21.954;2022-09-29T03:28:03;5.30;;;2.50;;
36137;SDS011;22194;50.046;21.954;2022-09-29T03:30:35;4.40;;;2.40;;
36137;SDS011;22194;50.046;21.954;2022-09-29T03:33:04;5.60;;;2.30;;
36137;SDS011;22194;50.046;21.954;2022-09-29T03:35:34;7.00;;;2.30;;
36137;SDS011;22194;50.046;21.954;2022-09-29T03:38:02;7.70;;;2.80;;
36137;SDS011;22194;50.046;21.954;2022-09-29T03:40:32;4.50;;;2.30;;
36137;SDS011;22194;50.046;21.954;2022-09-29T03:43:01;3.30;;;2.40;;
36137;SDS011;22194;50.046;21.954;2022-09-29T03:45:31;5.50;;;2.60;;
36137;SDS011;22194;50.046;21.954;2022-09-29T03:48:01;6.30;;;2.60;;
36137;SDS011;22194;50.046;21.954;2022-09-29T03:50:30;3.70;;;2.30;;
36137;SDS011;22194;50.046;21.954;2022-09-29T03:52:58;4.40;;;2.40;;
36137;SDS011;22194;50.046;21.954;2022-09-29T03:55:26;3.40;;;2.50;;
36137;SDS011;22194;50.046;21.954;2022-09-29T03:57:54;5.20;;;2.70;;
36137;SDS011;22194;50.046;21.954;2022-09-29T04:00:24;4.70;;;2.40;;
36137;SDS011;22194;50.046;21.954;2022-09-29T04:02:55;5.80;;;2.80;;
36137;SDS011;22194;50.046;21.954;2022-09-29T04:05:26;5.50;;;2.70;;
36137;SDS011;22194;50.046;21.954;2022-09-29T04:07:56;3.20;;;2.60;;
36137;SDS011;22194;50.046;21.954;2022-09-29T04:10:24;5.50;;;3.00;;
36137;SDS011;22194;50.046;21.954;2022-09-29T04:12:52;7.30;;;2.80;;
36137;SDS011;22194;50.046;21.954;2022-09-29T04:15:21;8.80;;;2.90;;
36137;SDS011;22194;50.046;21.954;2022-09-29T04:17:48;3.80;;;2.20;;
36137;SDS011;22194;50.046;21.954;2022-09-29T04:20:16;4.40;;;2.60;;
36137;SDS011;22194;50.046;21.954;2022-09-29T04:22:46;5.50;;;3.00;;
36137;SDS011;22194;50.046;21.954;2022-09-29T04:25:17;6.00;;;2.80;;
36137;SDS011;22194;50.046;21.954;2022-09-29T04:27:50;4.70;;;2.90;;
36137;SDS011;22194;50.046;21.954;2022-09-29T04:30:23;5.20;;;2.90;;
36137;SDS011;22194;50.046;21.954;2022-09-29T04:32:53;7.60;;;3.20;;
36137;SDS011;22194;50.046;21.954;2022-09-29T04:35:22;5.30;;;3.00;;
36137;SDS011;22194;50.046;21.954;2022-09-29T04:37:56;5.70;;;3.00;;
36137;SDS011;22194;50.046;21.954;2022-09-29T04:40:29;5.40;;;2.90;;
36137;SDS011;22194;50.046;21.954;2022-09-29T04:42:59;7.10;;;3.50;;
36137;SDS011;22194;50.046;21.954;2022-09-29T04:45:28;8.80;;;3.10;;
36137;SDS011;22194;50.046;21.954;2022-09-29T04:48:00;7.70;;;3.30;;
36137;SDS011;22194;50.046;21.954;2022-09-29T04:50:29;7.40;;;3.00;;
36137;SDS011;22194;50.046;21.954;2022-09-29T04:52:58;4.90;;;3.10;;
36137;SDS011;22194;50.046;21.954;2022-09-29T04:55:30;7.40;;;3.50;;
36137;SDS011;22194;50.046;21.954;2022-09-29T04:58:00;8.50;;;2.70;;
36137;SDS011;22194;50.046;21.954;2022-09-29T05:00:29;7.50;;;3.30;;
36137;SDS011;22194;50.046;21.954;2022-09-29T05:03:00;4.70;;;2.80;;
36137;SDS011;22194;50.046;21.954;2022-09-29T05:05:29;10.00;;;3.30;;
36137;SDS011;22194;50.046;21.954;2022-09-29T05:08:01;7.30;;;3.40;;
36137;SDS011;22194;50.046;21.954;2022-09-29T05:10:31;6.30;;;3.10;;
36137;SDS011;22194;50.046;21.954;2022-09-29T05:13:01;9.10;;;3.30;;
36137;SDS011;22194;50.046;21.954;2022-09-29T05:15:30;6.70;;;3.20;;
36137;SDS011;22194;50.046;21.954;2022-09-29T05:18:01;7.10;;;3.50;;
36137;SDS011;22194;50.046;21.954;2022-09-29T05:20:34;5.90;;;3.10;;
36137;SDS011;22194;50.046;21.954;2022-09-29T05:23:11;6.70;;;3.20;;
36137;SDS011;22194;50.046;21.954;2022-09-29T05:25:41;6.60;;;3.40;;
36137;SDS011;22194;50.046;21.954;2022-09-29T05:28:12;6.00;;;3.40;;
36137;SDS011;22194;50.046;21.954;2022-09-29T05:30:42;8.80;;;3.20;;
36137;SDS011;22194;50.046;21.954;2022-09-29T05:33:10;6.50;;;3.30;;
36137;SDS011;22194;50.046;21.954;2022-09-29T05:35:38;8.00;;;3.40;;
36137;SDS011;22194;50.046;21.954;2022-09-29T05:38:07;12.30;;;4.60;;
36137;SDS011;22194;50.046;21.954;2022-09-29T05:40:37;8.30;;;3.60;;
36137;SDS011;22194;50.046;21.954;2022-09-29T05:43:07;7.60;;;3.70;;
36137;SDS011;22194;50.046;21.954;2022-09-29T05:45:36;8.30;;;4.00;;
36137;SDS011;22194;50.046;21.954;2022-09-29T05:48:06;8.20;;;3.70;;
36137;SDS011;22194;50.046;21.954;2022-09-29T05:50:37;6.30;;;3.30;;
36137;SDS011;22194;50.046;21.954;2022-09-29T05:53:10;7.60;;;3.30;;
36137;SDS011;22194;50.046;21.954;2022-09-29T05:55:40;9.30;;;4.10;;
36137;SDS011;22194;50.046;21.954;2022-09-29T05:58:08;7.60;;;3.40;;
36137;SDS011;22194;50.046;21.954;2022-09-29T06:00:37;6.80;;;3.10;;
36137;SDS011;22194;50.046;21.954;2022-09-29T06:03:07;5.70;;;3.40;;
36137;SDS011;22194;50.046;21.954;2022-09-29T06:05:38;9.00;;;4.00;;
36137;SDS011;22194;50.046;21.954;2022-09-29T06:08:09;7.20;;;3.80;;
36137;SDS011;22194;50.046;21.954;2022-09-29T06:10:40;6.50;;;3.30;;
36137;SDS011;22194;50.046;21.954;2022-09-29T06:13:10;8.30;;;3.70;;
36137;SDS011;22194;50.046;21.954;2022-09-29T06:15:40;8.20;;;3.50;;
36137;SDS011;22194;50.046;21.954;2022-09-29T06:18:11;10.50;;;4.00;;
36137;SDS011;22194;50.046;21.954;2022-09-29T06:20:39;6.80;;;3.80;;
36137;SDS011;22194;50.046;21.954;2022-09-29T06:23:07;10.50;;;4.00;;
36137;SDS011;22194;50.046;21.954;2022-09-29T06:25:36;12.10;;;4.30;;
36137;SDS011;22194;50.046;21.954;2022-09-29T06:28:06;7.20;;;3.80;;
36137;SDS011;22194;50.046;21.954;2022-09-29T06:30:34;6.40;;;3.50;;
36137;SDS011;22194;50.046;21.954;2022-09-29T06:33:06;11.50;;;4.40;;
36137;SDS011;22194;50.046;21.954;2022-09-29T06:35:33;8.10;;;3.90;;
36137;SDS011;22194;50.046;21.954;2022-09-29T06:38:22;10.20;;;4.50;;
36137;SDS011;22194;50.046;21.954;2022-09-29T06:40:56;9.90;;;4.30;;
36137;SDS011;22194;50.046;21.954;2022-09-29T06:43:26;8.70;;;4.50;;
36137;SDS011;22194;50.046;21.954;2022-09-29T06:45:56;11.50;;;4.80;;
36137;SDS011;22194;50.046;21.954;2022-09-29T06:48:26;11.30;;;4.90;;
36137;SDS011;22194;50.046;21.954;2022-09-29T06:50:56;10.80;;;4.80;;
36137;SDS011;22194;50.046;21.954;2022-09-29T06:53:39;12.10;;;4.90;;
36137;SDS011;22194;50.046;21.954;2022-09-29T06:56:09;14.10;;;5.80;;
36137;SDS011;22194;50.046;21.954;2022-09-29T06:58:40;13.50;;;5.60;;
36137;SDS011;22194;50.046;21.954;2022-09-29T07:01:12;11.90;;;5.00;;
36137;SDS011;22194;50.046;21.954;2022-09-29T07:03:42;8.10;;;4.70;;
36137;SDS011;22194;50.046;21.954;2022-09-29T07:06:12;10.40;;;4.70;;
36137;SDS011;22194;50.046;21.954;2022-09-29T07:08:52;9.90;;;4.70;;
36137;SDS011;22194;50.046;21.954;2022-09-29T07:11:23;13.80;;;5.00;;
36137;SDS011;22194;50.046;21.954;2022-09-29T07:13:56;12.10;;;4.90;;
36137;SDS011;22194;50.046;21.954;2022-09-29T07:16:25;8.60;;;4.30;;
36137;SDS011;22194;50.046;21.954;2022-09-29T07:18:54;10.30;;;4.20;;
36137;SDS011;22194;50.046;21.954;2022-09-29T07:21:23;10.70;;;4.60;;
36137;SDS011;22194;50.046;21.954;2022-09-29T07:23:54;11.80;;;4.50;;
36137;SDS011;22194;50.046;21.954;2022-09-29T07:26:28;11.30;;;4.50;;
36137;SDS011;22194;50.046;21.954;2022-09-29T07:28:56;10.70;;;4.90;;
36137;SDS011;22194;50.046;21.954;2022-09-29T07:31:28;17.60;;;5.60;;
36137;SDS011;22194;50.046;21.954;2022-09-29T07:34:06;16.20;;;5.70;;
36137;SDS011;22194;50.046;21.954;2022-09-29T07:36:34;10.60;;;4.90;;
36137;SDS011;22194;50.046;21.954;2022-09-29T07:39:08;16.30;;;6.00;;
36137;SDS011;22194;50.046;21.954;2022-09-29T07:41:39;13.90;;;5.40;;
36137;SDS011;22194;50.046;21.954;2022-09-29T07:44:07;11.20;;;5.00;;
36137;SDS011;22194;50.046;21.954;2022-09-29T07:46:38;15.40;;;5.70;;
36137;SDS011;22194;50.046;21.954;2022-09-29T07:49:06;17.10;;;5.40;;
36137;SDS011;22194;50.046;21.954;2022-09-29T07:51:38;12.00;;;4.80;;
36137;SDS011;22194;50.046;21.954;2022-09-29T07:54:05;17.10;;;5.00;;
36137;SDS011;22194;50.046;21.954;2022-09-29T07:56:37;9.80;;;4.90;;
36137;SDS011;22194;50.046;21.954;2022-09-29T07:59:06;12.30;;;4.70;;
36137;SDS011;22194;50.046;21.954;2022-09-29T08:01:37;7.80;;;3.90;;
36137;SDS011;22194;50.046;21.954;2022-09-29T08:04:07;9.70;;;4.10;;
36137;SDS011;22194;50.046;21.954;2022-09-29T08:06:36;10.50;;;4.40;;
36137;SDS011;22194;50.046;21.954;2022-09-29T08:09:05;19.00;;;4.20;;
36137;SDS011;22194;50.046;21.954;2022-09-29T08:11:39;14.60;;;4.80;;
36137;SDS011;22194;50.046;21.954;2022-09-29T08:14:11;10.60;;;4.50;;
36137;SDS011;22194;50.046;21.954;2022-09-29T08:16:42;11.00;;;4.20;;
36137;SDS011;22194;50.046;21.954;2022-09-29T08:19:12;11.40;;;4.40;;
36137;SDS011;22194;50.046;21.954;2022-09-29T08:21:45;5.80;;;3.30;;
36137;SDS011;22194;50.046;21.954;2022-09-29T08:24:17;8.90;;;3.60;;
36137;SDS011;22194;50.046;21.954;2022-09-29T08:29:21;11.20;;;3.60;;
36137;SDS011;22194;50.046;21.954;2022-09-29T08:31:51;7.30;;;3.40;;
36137;SDS011;22194;50.046;21.954;2022-09-29T08:34:20;14.00;;;4.00;;
36137;SDS011;22194;50.046;21.954;2022-09-29T08:36:53;13.80;;;4.20;;
36137;SDS011;22194;50.046;21.954;2022-09-29T08:39:26;12.00;;;2.60;;
36137;SDS011;22194;50.046;21.954;2022-09-29T08:42:04;17.10;;;4.60;;
36137;SDS011;22194;50.046;21.954;2022-09-29T08:45:24;9.70;;;3.30;;
36137;SDS011;22194;50.046;21.954;2022-09-29T08:48:10;18.50;;;3.70;;
36137;SDS011;22194;50.046;21.954;2022-09-29T08:51:07;11.00;;;4.30;;
36137;SDS011;22194;50.046;21.954;2022-09-29T08:54:17;8.50;;;3.40;;
36137;SDS011;22194;50.046;21.954;2022-09-29T08:57:14;9.70;;;3.70;;
36137;SDS011;22194;50.046;21.954;2022-09-29T08:59:52;7.90;;;3.00;;
36137;SDS011;22194;50.046;21.954;2022-09-29T09:07:42;7.90;;;3.50;;
36137;SDS011;22194;50.046;21.954;2022-09-29T09:18:59;8.10;;;4.10;;
36137;SDS011;22194;50.046;21.954;2022-09-29T09:27:33;14.40;;;4.80;;
36137;SDS011;22194;50.046;21.954;2022-09-29T09:30:14;14.10;;;5.30;;
36137;SDS011;22194;50.046;21.954;2022-09-29T09:32:48;15.70;;;5.80;;
36137;SDS011;22194;50.046;21.954;2022-09-29T09:35:31;16.90;;;5.40;;
36137;SDS011;22194;50.046;21.954;2022-09-29T09:38:05;12.20;;;5.40;;
36137;SDS011;22194;50.046;21.954;2022-09-29T09:40:42;11.90;;;5.00;;
36137;SDS011;22194;50.046;21.954;2022-09-29T09:43:17;15.00;;;5.50;;
36137;SDS011;22194;50.046;21.954;2022-09-29T09:45:59;10.50;;;5.50;;
36137;SDS011;22194;50.046;21.954;2022-09-29T09:48:34;12.70;;;5.40;;
36137;SDS011;22194;50.046;21.954;2022-09-29T09:51:20;12.40;;;5.80;;
36137;SDS011;22194;50.046;21.954;2022-09-29T09:53:59;14.90;;;5.90;;
36137;SDS011;22194;50.046;21.954;2022-09-29T10:00:12;16.90;;;6.10;;
36137;SDS011;22194;50.046;21.954;2022-09-29T10:02:43;13.50;;;6.00;;
36137;SDS011;22194;50.046;21.954;2022-09-29T10:05:18;22.00;;;10.30;;
36137;SDS011;22194;50.046;21.954;2022-09-29T10:07:49;14.50;;;5.40;;
36137;SDS011;22194;50.046;21.954;2022-09-29T10:10:23;9.60;;;4.70;;
36137;SDS011;22194;50.046;21.954;2022-09-29T10:12:57;8.10;;;4.20;;
36137;SDS011;22194;50.046;21.954;2022-09-29T10:15:42;7.40;;;3.40;;
36137;SDS011;22194;50.046;21.954;2022-09-29T10:18:13;7.40;;;3.40;;
36137;SDS011;22194;50.046;21.954;2022-09-29T10:20:56;9.10;;;3.60;;
36137;SDS011;22194;50.046;21.954;2022-09-29T10:26:00;6.70;;;3.60;;
36137;SDS011;22194;50.046;21.954;2022-09-29T10:28:40;10.10;;;4.10;;
36137;SDS011;22194;50.046;21.954;2022-09-29T10:31:16;9.50;;;3.70;;
36137;SDS011;22194;50.046;21.954;2022-09-29T10:34:32;10.80;;;4.20;;
36137;SDS011;22194;50.046;21.954;2022-09-29T10:36:54;10.60;;;4.30;;
36137;SDS011;22194;50.046;21.954;2022-09-29T10:42:20;8.60;;;3.60;;
36137;SDS011;22194;50.046;21.954;2022-09-29T10:44:50;8.70;;;3.90;;
36137;SDS011;22194;50.046;21.954;2022-09-29T10:47:20;7.20;;;3.80;;
36137;SDS011;22194;50.046;21.954;2022-09-29T10:50:06;8.20;;;4.00;;
36137;SDS011;22194;50.046;21.954;2022-09-29T10:52:35;8.30;;;3.80;;
36137;SDS011;22194;50.046;21.954;2022-09-29T10:55:04;7.60;;;3.60;;
36137;SDS011;22194;50.046;21.954;2022-09-29T10:57:43;8.20;;;4.10;;
36137;SDS011;22194;50.046;21.954;2022-09-29T11:00:30;7.70;;;3.90;;
36137;SDS011;22194;50.046;21.954;2022-09-29T11:06:08;9.60;;;3.80;;
36137;SDS011;22194;50.046;21.954;2022-09-29T11:11:39;9.40;;;3.70;;
36137;SDS011;22194;50.046;21.954;2022-09-29T11:17:18;8.80;;;3.80;;
36137;SDS011;22194;50.046;21.954;2022-09-29T11:20:11;9.20;;;4.00;;
36137;SDS011;22194;50.046;21.954;2022-09-29T11:22:54;10.10;;;3.90;;
36137;SDS011;22194;50.046;21.954;2022-09-29T11:26:04;6.80;;;3.40;;
36137;SDS011;22194;50.046;21.954;2022-09-29T11:28:51;9.40;;;3.90;;
36137;SDS011;22194;50.046;21.954;2022-09-29T11:31:54;8.20;;;3.70;;
36137;SDS011;22194;50.046;21.954;2022-09-29T11:34:35;8.10;;;4.30;;
36137;SDS011;22194;50.046;21.954;2022-09-29T11:43:41;8.40;;;4.40;;
36137;SDS011;22194;50.046;21.954;2022-09-29T11:54:01;8.00;;;4.30;;
36137;SDS011;22194;50.046;21.954;2022-09-29T11:57:02;10.50;;;4.30;;
36137;SDS011;22194;50.046;21.954;2022-09-29T12:11:08;12.70;;;4.70;;
36137;SDS011;22194;50.046;21.954;2022-09-29T12:14:04;13.90;;;5.10;;
36137;SDS011;22194;50.046;21.954;2022-09-29T12:16:57;7.90;;;4.10;;
36137;SDS011;22194;50.046;21.954;2022-09-29T12:22:06;11.20;;;4.70;;
36137;SDS011;22194;50.046;21.954;2022-09-29T12:24:39;8.00;;;4.40;;
36137;SDS011;22194;50.046;21.954;2022-09-29T12:27:27;12.20;;;4.70;;
36137;SDS011;22194;50.046;21.954;2022-09-29T12:30:26;15.60;;;4.60;;
36137;SDS011;22194;50.046;21.954;2022-09-29T12:33:04;9.40;;;4.20;;
36137;SDS011;22194;50.046;21.954;2022-09-29T12:43:56;11.40;;;4.70;;
36137;SDS011;22194;50.046;21.954;2022-09-29T12:46:44;15.70;;;6.10;;
36137;SDS011;22194;50.046;21.954;2022-09-29T12:49:36;15.30;;;6.00;;
36137;SDS011;22194;50.046;21.954;2022-09-29T12:52:31;16.00;;;6.30;;
36137;SDS011;22194;50.046;21.954;2022-09-29T12:57:46;17.00;;;6.90;;
36137;SDS011;22194;50.046;21.954;2022-09-29T13:00:19;12.40;;;5.30;;
36137;SDS011;22194;50.046;21.954;2022-09-29T13:25:39;8.70;;;3.90;;
36137;SDS011;22194;50.046;21.954;2022-09-29T13:28:28;9.70;;;4.40;;
36137;SDS011;22194;50.046;21.954;2022-09-29T13:31:10;13.20;;;5.50;;
36137;SDS011;22194;50.046;21.954;2022-09-29T13:33:50;19.40;;;7.40;;
36137;SDS011;22194;50.046;21.954;2022-09-29T13:36:26;21.90;;;7.50;;
36137;SDS011;22194;50.046;21.954;2022-09-29T13:39:04;16.00;;;5.90;;
36137;SDS011;22194;50.046;21.954;2022-09-29T13:41:37;14.80;;;5.90;;
36137;SDS011;22194;50.046;21.954;2022-09-29T13:46:46;15.70;;;6.10;;
36137;SDS011;22194;50.046;21.954;2022-09-29T13:49:23;18.50;;;6.90;;
36137;SDS011;22194;50.046;21.954;2022-09-29T13:51:56;16.90;;;7.30;;
36137;SDS011;22194;50.046;21.954;2022-09-29T13:59:35;18.10;;;7.40;;
36137;SDS011;22194;50.046;21.954;2022-09-29T14:04:56;13.20;;;5.80;;
36137;SDS011;22194;50.046;21.954;2022-09-29T14:07:42;15.70;;;6.00;;
36137;SDS011;22194;50.046;21.954;2022-09-29T14:10:18;24.00;;;8.60;;
36137;SDS011;22194;50.046;21.954;2022-09-29T14:12:56;24.70;;;8.70;;
36137;SDS011;22194;50.046;21.954;2022-09-29T14:15:34;19.90;;;7.20;;
36137;SDS011;22194;50.046;21.954;2022-09-29T14:18:27;16.90;;;7.40;;
36137;SDS011;22194;50.046;21.954;2022-09-29T14:21:09;95.90;;;62.00;;
36137;SDS011;22194;50.046;21.954;2022-09-29T14:24:00;22.40;;;10.60;;
36137;SDS011;22194;50.046;21.954;2022-09-29T14:29:29;13.70;;;5.30;;
36137;SDS011;22194;50.046;21.954;2022-09-29T14:32:19;12.50;;;5.40;;
36137;SDS011;22194;50.046;21.954;2022-09-29T14:34:58;12.60;;;4.90;;
36137;SDS011;22194;50.046;21.954;2022-09-29T14:37:28;17.10;;;7.00;;
36137;SDS011;22194;50.046;21.954;2022-09-29T14:39:58;18.50;;;7.20;;
36137;SDS011;22194;50.046;21.954;2022-09-29T14:42:46;20.50;;;8.00;;
36137;SDS011;22194;50.046;21.954;2022-09-29T14:45:14;15.20;;;6.90;;
36137;SDS011;22194;50.046;21.954;2022-09-29T14:48:03;19.20;;;7.90;;
36137;SDS011;22194;50.046;21.954;2022-09-29T14:51:05;20.30;;;8.40;;
36137;SDS011;22194;50.046;21.954;2022-09-29T15:02:42;21.70;;;9.50;;
36137;SDS011;22194;50.046;21.954;2022-09-29T15:07:58;21.20;;;9.60;;
36137;SDS011;22194;50.046;21.954;2022-09-29T15:10:39;20.00;;;9.10;;
36137;SDS011;22194;50.046;21.954;2022-09-29T15:13:17;19.90;;;8.80;;
36137;SDS011;22194;50.046;21.954;2022-09-29T15:18:27;19.10;;;8.60;;
36137;SDS011;22194;50.046;21.954;2022-09-29T15:21:18;20.30;;;9.20;;
36137;SDS011;22194;50.046;21.954;2022-09-29T15:24:03;21.30;;;9.30;;
36137;SDS011;22194;50.046;21.954;2022-09-29T15:26:43;22.80;;;10.30;;
36137;SDS011;22194;50.046;21.954;2022-09-29T15:29:14;23.10;;;9.60;;
36137;SDS011;22194;50.046;21.954;2022-09-29T15:31:46;22.40;;;10.20;;
36137;SDS011;22194;50.046;21.954;2022-09-29T15:34:17;23.50;;;11.00;;
36137;SDS011;22194;50.046;21.954;2022-09-29T15:36:52;23.00;;;10.70;;
36137;SDS011;22194;50.046;21.954;2022-09-29T15:42:20;27.40;;;13.80;;
36137;SDS011;22194;50.046;21.954;2022-09-29T15:44:53;27.30;;;13.50;;
36137;SDS011;22194;50.046;21.954;2022-09-29T15:47:33;26.60;;;12.70;;
36137;SDS011;22194;50.046;21.954;2022-09-29T15:50:20;24.70;;;12.10;;
36137;SDS011;22194;50.046;21.954;2022-09-29T15:52:51;26.50;;;12.60;;
36137;SDS011;22194;50.046;21.954;2022-09-29T15:55:20;23.90;;;12.40;;
36137;SDS011;22194;50.046;21.954;2022-09-29T15:57:51;28.40;;;13.20;;
36137;SDS011;22194;50.046;21.954;2022-09-29T16:05:52;28.30;;;14.10;;
36137;SDS011;22194;50.046;21.954;2022-09-29T16:08:33;28.70;;;13.60;;
36137;SDS011;22194;50.046;21.954;2022-09-29T16:11:07;26.90;;;13.50;;
36137;SDS011;22194;50.046;21.954;2022-09-29T16:13:43;27.10;;;13.80;;
36137;SDS011;22194;50.046;21.954;2022-09-29T16:16:17;27.60;;;13.10;;
36137;SDS011;22194;50.046;21.954;2022-09-29T16:18:52;26.60;;;13.50;;
36137;SDS011;22194;50.046;21.954;2022-09-29T16:21:32;30.30;;;16.50;;
36137;SDS011;22194;50.046;21.954;2022-09-29T16:26:42;33.00;;;18.70;;
36137;SDS011;22194;50.046;21.954;2022-09-29T16:31:50;35.10;;;20.80;;
36137;SDS011;22194;50.046;21.954;2022-09-29T16:36:53;32.90;;;18.90;;
36137;SDS011;22194;50.046;21.954;2022-09-29T16:39:26;33.10;;;19.50;;
36137;SDS011;22194;50.046;21.954;2022-09-29T16:42:00;31.70;;;20.10;;
36137;SDS011;22194;50.046;21.954;2022-09-29T16:44:33;33.10;;;20.80;;
36137;SDS011;22194;50.046;21.954;2022-09-29T16:47:12;32.50;;;20.60;;
36137;SDS011;22194;50.046;21.954;2022-09-29T16:49:44;30.80;;;17.50;;
36137;SDS011;22194;50.046;21.954;2022-09-29T16:52:19;31.10;;;18.50;;
36137;SDS011;22194;50.046;21.954;2022-09-29T16:54:53;29.40;;;17.50;;
36137;SDS011;22194;50.046;21.954;2022-09-29T17:00:27;42.90;;;23.50;;
36137;SDS011;22194;50.046;21.954;2022-09-29T17:02:58;51.90;;;28.10;;
36137;SDS011;22194;50.046;21.954;2022-09-29T17:05:34;53.20;;;27.80;;
36137;SDS011;22194;50.046;21.954;2022-09-29T17:08:11;57.20;;;30.70;;
36137;SDS011;22194;50.046;21.954;2022-09-29T17:10:43;55.40;;;30.40;;
36137;SDS011;22194;50.046;21.954;2022-09-29T17:13:12;49.60;;;26.20;;
36137;SDS011;22194;50.046;21.954;2022-09-29T17:15:42;38.40;;;21.90;;
36137;SDS011;22194;50.046;21.954;2022-09-29T17:18:12;41.10;;;22.70;;
36137;SDS011;22194;50.046;21.954;2022-09-29T17:20:43;35.00;;;18.80;;
36137;SDS011;22194;50.046;21.954;2022-09-29T17:23:12;32.10;;;17.70;;
36137;SDS011;22194;50.046;21.954;2022-09-29T17:25:42;30.90;;;17.90;;
36137;SDS011;22194;50.046;21.954;2022-09-29T17:28:20;29.80;;;15.30;;
36137;SDS011;22194;50.046;21.954;2022-09-29T17:30:52;29.50;;;16.10;;
36137;SDS011;22194;50.046;21.954;2022-09-29T17:33:22;34.40;;;18.40;;
36137;SDS011;22194;50.046;21.954;2022-09-29T17:35:50;32.90;;;17.40;;
36137;SDS011;22194;50.046;21.954;2022-09-29T17:38:23;32.30;;;17.50;;
36137;SDS011;22194;50.046;21.954;2022-09-29T17:40:54;37.00;;;18.80;;
36137;SDS011;22194;50.046;21.954;2022-09-29T17:43:24;29.30;;;16.90;;
36137;SDS011;22194;50.046;21.954;2022-09-29T17:45:53;35.60;;;17.90;;
36137;SDS011;22194;50.046;21.954;2022-09-29T17:48:26;29.90;;;16.30;;
36137;SDS011;22194;50.046;21.954;2022-09-29T17:50:55;31.30;;;16.20;;
36137;SDS011;22194;50.046;21.954;2022-09-29T17:53:26;31.70;;;16.40;;
36137;SDS011;22194;50.046;21.954;2022-09-29T17:55:55;35.70;;;17.80;;
36137;SDS011;22194;50.046;21.954;2022-09-29T17:58:24;34.40;;;16.30;;
36137;SDS011;22194;50.046;21.954;2022-09-29T18:00:53;30.40;;;16.50;;
36137;SDS011;22194;50.046;21.954;2022-09-29T18:03:24;29.80;;;15.60;;
36137;SDS011;22194;50.046;21.954;2022-09-29T18:05:53;31.60;;;15.60;;
36137;SDS011;22194;50.046;21.954;2022-09-29T18:08:24;33.40;;;16.70;;
36137;SDS011;22194;50.046;21.954;2022-09-29T18:10:55;31.70;;;17.10;;
36137;SDS011;22194;50.046;21.954;2022-09-29T18:13:25;32.90;;;18.00;;
36137;SDS011;22194;50.046;21.954;2022-09-29T18:15:55;34.50;;;19.10;;
36137;SDS011;22194;50.046;21.954;2022-09-29T18:18:26;32.50;;;18.40;;
36137;SDS011;22194;50.046;21.954;2022-09-29T18:20:55;37.40;;;19.00;;
36137;SDS011;22194;50.046;21.954;2022-09-29T18:23:23;32.80;;;18.70;;
36137;SDS011;22194;50.046;21.954;2022-09-29T18:25:52;34.60;;;18.70;;